sensor_id;sensor_type;location;lat;lon;timestamp;temperature;humidity
31765;DHT22;18338;53.240;8.798;2023-05-10T00:00:23;13.90;99.90
31765;DHT22;18338;53.240;8.798;2023-05-10T00:02:50;13.90;99.90
31765;DHT22;18338;53.240;8.798;2023-05-10T00:05:17;13.90;99.90
31765;DHT22;18338;53.240;8.798;2023-05-10T00:07:44;13.90;99.90
31765;DHT22;18338;53.240;8.798;2023-05-10T00:10:11;13.80;99.90
31765;DHT22;18338;53.240;8.798;2023-05-10T00:12:38;13.80;99.90
31765;DHT22;18338;53.240;8.798;2023-05-10T00:15:05;13.70;99.90
31765;DHT22;18338;53.240;8.798;2023-05-10T00:17:32;13.70;99.90
31765;DHT22;18338;53.240;8.798;2023-05-10T00:19:59;13.70;99.90
31765;DHT22;18338;53.240;8.798;2023-05-10T00:22:26;13.70;99.90
31765;DHT22;18338;53.240;8.798;2023-05-10T00:24:53;13.70;99.90
31765;DHT22;18338;53.240;8.798;2023-05-10T00:27:20;13.70;99.90
31765;DHT22;18338;53.240;8.798;2023-05-10T00:29:46;13.60;99.90
31765;DHT22;18338;53.240;8.798;2023-05-10T00:32:13;13.60;99.90
31765;DHT22;18338;53.240;8.798;2023-05-10T00:34:40;13.60;99.90
31765;DHT22;18338;53.240;8.798;2023-05-10T00:37:07;13.60;99.90
31765;DHT22;18338;53.240;8.798;2023-05-10T00:39:34;13.60;99.90
31765;DHT22;18338;53.240;8.798;2023-05-10T00:42:01;13.50;99.90
31765;DHT22;18338;53.240;8.798;2023-05-10T00:44:28;13.50;99.90
31765;DHT22;18338;53.240;8.798;2023-05-10T00:46:54;13.50;99.90
31765;DHT22;18338;53.240;8.798;2023-05-10T00:49:21;13.40;99.90
31765;DHT22;18338;53.240;8.798;2023-05-10T00:51:48;13.40;99.90
31765;DHT22;18338;53.240;8.798;2023-05-10T00:54:15;13.40;99.90
31765;DHT22;18338;53.240;8.798;2023-05-10T00:56:42;13.30;99.90
31765;DHT22;18338;53.240;8.798;2023-05-10T00:59:18;13.30;99.90
31765;DHT22;18338;53.240;8.798;2023-05-10T01:01:45;13.30;99.90
31765;DHT22;18338;53.240;8.798;2023-05-10T01:04:14;13.20;99.90
31765;DHT22;18338;53.240;8.798;2023-05-10T01:06:43;13.20;99.90
31765;DHT22;18338;53.240;8.798;2023-05-10T01:09:10;13.10;99.90
31765;DHT22;18338;53.240;8.798;2023-05-10T01:11:38;13.10;99.90
31765;DHT22;18338;53.240;8.798;2023-05-10T01:14:06;13.10;99.90
31765;DHT22;18338;53.240;8.798;2023-05-10T01:16:37;13.10;99.90
31765;DHT22;18338;53.240;8.798;2023-05-10T01:19:19;13.00;99.90
31765;DHT22;18338;53.240;8.798;2023-05-10T01:21:57;13.00;99.90
31765;DHT22;18338;53.240;8.798;2023-05-10T01:38:12;12.90;99.90
31765;DHT22;18338;53.240;8.798;2023-05-10T01:40:47;12.90;99.90
31765;DHT22;18338;53.240;8.798;2023-05-10T01:43:22;12.90;99.90
31765;DHT22;18338;53.240;8.798;2023-05-10T01:48:28;12.90;99.90
31765;DHT22;18338;53.240;8.798;2023-05-10T01:50:56;12.80;99.90
31765;DHT22;18338;53.240;8.798;2023-05-10T01:53:23;12.80;99.90
31765;DHT22;18338;53.240;8.798;2023-05-10T01:55:52;12.80;99.90
31765;DHT22;18338;53.240;8.798;2023-05-10T01:58:25;12.80;99.90
31765;DHT22;18338;53.240;8.798;2023-05-10T02:00:54;12.70;99.90
31765;DHT22;18338;53.240;8.798;2023-05-10T02:03:23;12.80;99.90
31765;DHT22;18338;53.240;8.798;2023-05-10T02:05:52;12.70;99.90
31765;DHT22;18338;53.240;8.798;2023-05-10T02:08:22;12.70;99.90
31765;DHT22;18338;53.240;8.798;2023-05-10T02:10:50;12.70;99.90
31765;DHT22;18338;53.240;8.798;2023-05-10T02:13:19;12.70;99.90
31765;DHT22;18338;53.240;8.798;2023-05-10T02:15:48;12.70;99.90
31765;DHT22;18338;53.240;8.798;2023-05-10T02:18:16;12.70;99.90
31765;DHT22;18338;53.240;8.798;2023-05-10T02:20:47;12.70;99.90
31765;DHT22;18338;53.240;8.798;2023-05-10T02:23:15;12.70;99.90
31765;DHT22;18338;53.240;8.798;2023-05-10T02:25:44;12.70;99.90
31765;DHT22;18338;53.240;8.798;2023-05-10T02:28:12;12.60;99.90
31765;DHT22;18338;53.240;8.798;2023-05-10T02:30:40;12.70;99.90
31765;DHT22;18338;53.240;8.798;2023-05-10T02:33:08;12.60;99.90
31765;DHT22;18338;53.240;8.798;2023-05-10T02:35:35;12.60;99.90
31765;DHT22;18338;53.240;8.798;2023-05-10T02:38:04;12.60;99.90
31765;DHT22;18338;53.240;8.798;2023-05-10T02:40:32;12.60;99.90
31765;DHT22;18338;53.240;8.798;2023-05-10T02:43:01;12.60;99.90
31765;DHT22;18338;53.240;8.798;2023-05-10T02:45:31;12.70;99.90
31765;DHT22;18338;53.240;8.798;2023-05-10T02:47:58;12.60;99.90
31765;DHT22;18338;53.240;8.798;2023-05-10T02:50:27;12.60;99.90
31765;DHT22;18338;53.240;8.798;2023-05-10T02:53:00;12.70;99.90
31765;DHT22;18338;53.240;8.798;2023-05-10T02:55:32;12.70;99.90
31765;DHT22;18338;53.240;8.798;2023-05-10T02:58:02;12.60;99.90
31765;DHT22;18338;53.240;8.798;2023-05-10T03:00:29;12.60;99.90
31765;DHT22;18338;53.240;8.798;2023-05-10T03:02:56;12.60;99.90
31765;DHT22;18338;53.240;8.798;2023-05-10T03:05:23;12.60;99.90
31765;DHT22;18338;53.240;8.798;2023-05-10T03:07:50;12.60;99.90
31765;DHT22;18338;53.240;8.798;2023-05-10T03:10:18;12.60;99.90
31765;DHT22;18338;53.240;8.798;2023-05-10T03:13:07;12.60;99.90
31765;DHT22;18338;53.240;8.798;2023-05-10T03:15:47;12.60;99.90
31765;DHT22;18338;53.240;8.798;2023-05-10T03:18:28;12.60;99.90
31765;DHT22;18338;53.240;8.798;2023-05-10T03:20:59;12.60;99.90
31765;DHT22;18338;53.240;8.798;2023-05-10T03:23:35;12.60;99.90
31765;DHT22;18338;53.240;8.798;2023-05-10T03:26:08;12.50;99.90
31765;DHT22;18338;53.240;8.798;2023-05-10T03:28:35;12.60;99.90
31765;DHT22;18338;53.240;8.798;2023-05-10T03:31:03;12.60;99.90
31765;DHT22;18338;53.240;8.798;2023-05-10T03:33:30;12.50;99.90
31765;DHT22;18338;53.240;8.798;2023-05-10T03:35:58;12.60;99.90
31765;DHT22;18338;53.240;8.798;2023-05-10T03:38:24;12.60;99.90
31765;DHT22;18338;53.240;8.798;2023-05-10T03:40:53;12.50;99.90
31765;DHT22;18338;53.240;8.798;2023-05-10T03:43:20;12.60;99.90
31765;DHT22;18338;53.240;8.798;2023-05-10T03:45:47;12.60;99.90
31765;DHT22;18338;53.240;8.798;2023-05-10T03:48:13;12.60;99.90
31765;DHT22;18338;53.240;8.798;2023-05-10T03:50:40;12.60;99.90
31765;DHT22;18338;53.240;8.798;2023-05-10T03:53:07;12.60;99.90
31765;DHT22;18338;53.240;8.798;2023-05-10T03:55:34;12.60;99.90
31765;DHT22;18338;53.240;8.798;2023-05-10T03:58:02;12.60;99.90
31765;DHT22;18338;53.240;8.798;2023-05-10T04:00:29;12.60;99.90
31765;DHT22;18338;53.240;8.798;2023-05-10T04:02:56;12.60;99.90
31765;DHT22;18338;53.240;8.798;2023-05-10T04:05:23;12.60;99.90
31765;DHT22;18338;53.240;8.798;2023-05-10T04:07:50;12.60;99.90
31765;DHT22;18338;53.240;8.798;2023-05-10T04:10:17;12.70;99.90
31765;DHT22;18338;53.240;8.798;2023-05-10T04:12:44;12.60;99.90
31765;DHT22;18338;53.240;8.798;2023-05-10T04:15:11;12.60;99.90
31765;DHT22;18338;53.240;8.798;2023-05-10T04:17:38;12.60;99.90
31765;DHT22;18338;53.240;8.798;2023-05-10T04:20:05;12.60;99.90
31765;DHT22;18338;53.240;8.798;2023-05-10T04:22:32;12.60;99.90
31765;DHT22;18338;53.240;8.798;2023-05-10T04:24:59;12.50;99.90
31765;DHT22;18338;53.240;8.798;2023-05-10T04:27:26;12.50;99.90
31765;DHT22;18338;53.240;8.798;2023-05-10T04:29:52;12.50;99.90
31765;DHT22;18338;53.240;8.798;2023-05-10T04:32:19;12.50;99.90
31765;DHT22;18338;53.240;8.798;2023-05-10T04:34:47;12.50;99.90
31765;DHT22;18338;53.240;8.798;2023-05-10T04:37:13;12.50;99.90
31765;DHT22;18338;53.240;8.798;2023-05-10T04:39:40;12.50;99.90
31765;DHT22;18338;53.240;8.798;2023-05-10T04:42:08;12.50;99.90
31765;DHT22;18338;53.240;8.798;2023-05-10T04:44:34;12.40;99.90
31765;DHT22;18338;53.240;8.798;2023-05-10T04:47:02;12.30;99.90
31765;DHT22;18338;53.240;8.798;2023-05-10T04:49:29;12.30;99.90
31765;DHT22;18338;53.240;8.798;2023-05-10T04:51:56;12.20;99.90
31765;DHT22;18338;53.240;8.798;2023-05-10T04:54:23;12.20;99.90
31765;DHT22;18338;53.240;8.798;2023-05-10T04:56:49;12.10;99.90
31765;DHT22;18338;53.240;8.798;2023-05-10T04:59:16;12.00;99.90
31765;DHT22;18338;53.240;8.798;2023-05-10T05:01:43;12.00;99.90
31765;DHT22;18338;53.240;8.798;2023-05-10T05:04:10;11.90;99.90
31765;DHT22;18338;53.240;8.798;2023-05-10T05:06:36;11.90;99.90
31765;DHT22;18338;53.240;8.798;2023-05-10T05:09:03;11.80;99.90
31765;DHT22;18338;53.240;8.798;2023-05-10T05:11:29;11.80;99.90
31765;DHT22;18338;53.240;8.798;2023-05-10T05:13:56;11.70;99.90
31765;DHT22;18338;53.240;8.798;2023-05-10T05:16:25;11.70;99.90
31765;DHT22;18338;53.240;8.798;2023-05-10T05:18:52;11.70;99.90
31765;DHT22;18338;53.240;8.798;2023-05-10T05:21:19;11.60;99.90
31765;DHT22;18338;53.240;8.798;2023-05-10T05:23:46;11.50;99.90
31765;DHT22;18338;53.240;8.798;2023-05-10T05:26:13;11.40;99.90
31765;DHT22;18338;53.240;8.798;2023-05-10T05:28:41;11.50;99.90
31765;DHT22;18338;53.240;8.798;2023-05-10T05:31:08;11.50;99.90
31765;DHT22;18338;53.240;8.798;2023-05-10T05:33:35;11.50;99.90
31765;DHT22;18338;53.240;8.798;2023-05-10T05:36:03;11.60;99.90
31765;DHT22;18338;53.240;8.798;2023-05-10T05:38:30;11.50;99.90
31765;DHT22;18338;53.240;8.798;2023-05-10T05:40:58;11.60;99.90
31765;DHT22;18338;53.240;8.798;2023-05-10T05:43:24;11.60;99.90
31765;DHT22;18338;53.240;8.798;2023-05-10T05:45:54;11.70;99.90
31765;DHT22;18338;53.240;8.798;2023-05-10T05:48:22;11.70;99.90
31765;DHT22;18338;53.240;8.798;2023-05-10T05:50:48;11.70;99.90
31765;DHT22;18338;53.240;8.798;2023-05-10T05:53:15;11.70;99.90
31765;DHT22;18338;53.240;8.798;2023-05-10T05:55:55;11.70;99.90
31765;DHT22;18338;53.240;8.798;2023-05-10T05:58:23;11.70;99.90
31765;DHT22;18338;53.240;8.798;2023-05-10T06:00:50;11.70;99.90
31765;DHT22;18338;53.240;8.798;2023-05-10T06:03:18;11.80;99.90
31765;DHT22;18338;53.240;8.798;2023-05-10T06:05:45;11.90;99.90
31765;DHT22;18338;53.240;8.798;2023-05-10T06:08:12;12.00;99.90
31765;DHT22;18338;53.240;8.798;2023-05-10T06:10:38;12.10;99.90
31765;DHT22;18338;53.240;8.798;2023-05-10T06:13:05;12.20;99.90
31765;DHT22;18338;53.240;8.798;2023-05-10T06:15:32;12.30;99.90
31765;DHT22;18338;53.240;8.798;2023-05-10T06:17:59;12.30;99.90
31765;DHT22;18338;53.240;8.798;2023-05-10T06:20:25;12.30;99.90
31765;DHT22;18338;53.240;8.798;2023-05-10T06:22:52;12.20;99.90
31765;DHT22;18338;53.240;8.798;2023-05-10T06:25:19;12.20;99.90
31765;DHT22;18338;53.240;8.798;2023-05-10T06:27:46;12.10;99.90
31765;DHT22;18338;53.240;8.798;2023-05-10T06:30:19;12.00;99.90
31765;DHT22;18338;53.240;8.798;2023-05-10T06:32:45;11.80;99.90
31765;DHT22;18338;53.240;8.798;2023-05-10T06:35:12;11.80;99.90
31765;DHT22;18338;53.240;8.798;2023-05-10T06:37:39;11.80;99.90
31765;DHT22;18338;53.240;8.798;2023-05-10T06:40:07;11.80;99.90
31765;DHT22;18338;53.240;8.798;2023-05-10T06:42:33;11.80;99.90
31765;DHT22;18338;53.240;8.798;2023-05-10T06:45:00;11.80;99.90
31765;DHT22;18338;53.240;8.798;2023-05-10T06:47:26;11.80;99.90
31765;DHT22;18338;53.240;8.798;2023-05-10T06:49:53;11.90;99.90
31765;DHT22;18338;53.240;8.798;2023-05-10T06:52:20;11.90;99.90
31765;DHT22;18338;53.240;8.798;2023-05-10T06:54:47;11.90;99.90
31765;DHT22;18338;53.240;8.798;2023-05-10T06:57:13;11.80;99.90
31765;DHT22;18338;53.240;8.798;2023-05-10T06:59:56;11.80;99.90
31765;DHT22;18338;53.240;8.798;2023-05-10T07:02:23;11.80;99.90
31765;DHT22;18338;53.240;8.798;2023-05-10T07:04:49;11.80;99.90
31765;DHT22;18338;53.240;8.798;2023-05-10T07:07:18;11.90;99.90
31765;DHT22;18338;53.240;8.798;2023-05-10T07:09:45;11.90;99.90
31765;DHT22;18338;53.240;8.798;2023-05-10T07:12:12;11.90;99.90
31765;DHT22;18338;53.240;8.798;2023-05-10T07:14:41;12.00;99.90
31765;DHT22;18338;53.240;8.798;2023-05-10T07:17:08;12.00;99.90
31765;DHT22;18338;53.240;8.798;2023-05-10T07:19:34;12.10;99.90
31765;DHT22;18338;53.240;8.798;2023-05-10T07:22:02;12.10;99.90
31765;DHT22;18338;53.240;8.798;2023-05-10T07:24:28;12.10;99.90
31765;DHT22;18338;53.240;8.798;2023-05-10T07:26:56;12.10;99.90
31765;DHT22;18338;53.240;8.798;2023-05-10T07:29:22;12.20;99.90
31765;DHT22;18338;53.240;8.798;2023-05-10T07:31:49;12.20;99.90
31765;DHT22;18338;53.240;8.798;2023-05-10T07:34:16;12.30;99.90
31765;DHT22;18338;53.240;8.798;2023-05-10T07:36:42;12.40;99.90
31765;DHT22;18338;53.240;8.798;2023-05-10T07:39:09;12.50;99.90
31765;DHT22;18338;53.240;8.798;2023-05-10T07:41:39;12.70;99.90
31765;DHT22;18338;53.240;8.798;2023-05-10T07:44:07;12.90;99.90
31765;DHT22;18338;53.240;8.798;2023-05-10T07:46:33;13.10;99.90
31765;DHT22;18338;53.240;8.798;2023-05-10T07:49:01;13.30;99.90
31765;DHT22;18338;53.240;8.798;2023-05-10T07:51:27;13.40;99.90
31765;DHT22;18338;53.240;8.798;2023-05-10T07:53:54;13.60;99.90
31765;DHT22;18338;53.240;8.798;2023-05-10T07:56:27;13.90;99.90
31765;DHT22;18338;53.240;8.798;2023-05-10T07:58:56;14.10;99.90
31765;DHT22;18338;53.240;8.798;2023-05-10T08:01:23;14.20;99.90
31765;DHT22;18338;53.240;8.798;2023-05-10T08:03:50;14.20;99.90
31765;DHT22;18338;53.240;8.798;2023-05-10T08:06:18;14.00;99.90
31765;DHT22;18338;53.240;8.798;2023-05-10T08:08:46;13.80;99.90
31765;DHT22;18338;53.240;8.798;2023-05-10T08:11:19;13.70;99.90
31765;DHT22;18338;53.240;8.798;2023-05-10T08:13:48;13.60;99.90
31765;DHT22;18338;53.240;8.798;2023-05-10T08:16:15;13.60;99.90
31765;DHT22;18338;53.240;8.798;2023-05-10T08:18:43;13.50;99.90
31765;DHT22;18338;53.240;8.798;2023-05-10T08:21:11;13.80;99.90
31765;DHT22;18338;53.240;8.798;2023-05-10T08:23:38;14.00;99.90
31765;DHT22;18338;53.240;8.798;2023-05-10T08:26:04;14.40;99.90
31765;DHT22;18338;53.240;8.798;2023-05-10T08:28:31;14.80;99.90
31765;DHT22;18338;53.240;8.798;2023-05-10T08:30:58;14.90;99.90
31765;DHT22;18338;53.240;8.798;2023-05-10T08:33:24;15.10;99.90
31765;DHT22;18338;53.240;8.798;2023-05-10T08:35:51;15.40;99.90
31765;DHT22;18338;53.240;8.798;2023-05-10T08:38:18;15.70;99.90
31765;DHT22;18338;53.240;8.798;2023-05-10T08:40:45;15.70;99.90
31765;DHT22;18338;53.240;8.798;2023-05-10T08:43:13;15.80;99.90
31765;DHT22;18338;53.240;8.798;2023-05-10T08:45:43;15.50;99.90
31765;DHT22;18338;53.240;8.798;2023-05-10T08:48:11;15.30;99.90
31765;DHT22;18338;53.240;8.798;2023-05-10T08:50:40;15.20;99.90
31765;DHT22;18338;53.240;8.798;2023-05-10T08:53:10;15.30;99.90
31765;DHT22;18338;53.240;8.798;2023-05-10T08:55:38;15.30;99.90
31765;DHT22;18338;53.240;8.798;2023-05-10T08:58:07;15.30;99.90
31765;DHT22;18338;53.240;8.798;2023-05-10T09:00:34;15.30;99.90
31765;DHT22;18338;53.240;8.798;2023-05-10T09:03:03;15.60;99.90
31765;DHT22;18338;53.240;8.798;2023-05-10T09:05:30;15.90;99.90
31765;DHT22;18338;53.240;8.798;2023-05-10T09:07:57;16.30;99.90
31765;DHT22;18338;53.240;8.798;2023-05-10T09:10:25;16.70;99.90
31765;DHT22;18338;53.240;8.798;2023-05-10T09:12:56;16.80;99.90
31765;DHT22;18338;53.240;8.798;2023-05-10T09:15:25;17.10;99.90
31765;DHT22;18338;53.240;8.798;2023-05-10T09:17:52;17.70;99.90
31765;DHT22;18338;53.240;8.798;2023-05-10T09:20:18;17.80;99.90
31765;DHT22;18338;53.240;8.798;2023-05-10T09:22:45;17.60;99.90
31765;DHT22;18338;53.240;8.798;2023-05-10T09:25:14;17.30;99.90
31765;DHT22;18338;53.240;8.798;2023-05-10T09:27:45;17.40;99.90
31765;DHT22;18338;53.240;8.798;2023-05-10T09:32:47;17.30;99.90
31765;DHT22;18338;53.240;8.798;2023-05-10T09:35:16;17.20;99.90
31765;DHT22;18338;53.240;8.798;2023-05-10T09:37:45;17.00;99.90
31765;DHT22;18338;53.240;8.798;2023-05-10T09:40:16;17.30;99.90
31765;DHT22;18338;53.240;8.798;2023-05-10T09:43:10;17.20;99.90
31765;DHT22;18338;53.240;8.798;2023-05-10T09:45:37;17.40;99.90
31765;DHT22;18338;53.240;8.798;2023-05-10T09:48:04;16.90;99.90
31765;DHT22;18338;53.240;8.798;2023-05-10T09:50:31;16.30;99.90
31765;DHT22;18338;53.240;8.798;2023-05-10T09:53:00;16.10;99.90
31765;DHT22;18338;53.240;8.798;2023-05-10T09:55:44;16.70;99.90
31765;DHT22;18338;53.240;8.798;2023-05-10T09:58:13;17.40;99.90
31765;DHT22;18338;53.240;8.798;2023-05-10T10:00:42;17.90;99.90
31765;DHT22;18338;53.240;8.798;2023-05-10T10:03:14;18.40;99.90
31765;DHT22;18338;53.240;8.798;2023-05-10T10:05:42;18.30;99.90
31765;DHT22;18338;53.240;8.798;2023-05-10T10:08:11;18.00;99.90
31765;DHT22;18338;53.240;8.798;2023-05-10T10:10:39;17.70;99.90
31765;DHT22;18338;53.240;8.798;2023-05-10T10:13:12;17.40;99.90
31765;DHT22;18338;53.240;8.798;2023-05-10T10:15:39;16.90;99.90
31765;DHT22;18338;53.240;8.798;2023-05-10T10:18:06;16.90;99.90
31765;DHT22;18338;53.240;8.798;2023-05-10T10:20:37;16.80;99.90
31765;DHT22;18338;53.240;8.798;2023-05-10T10:23:04;16.40;99.90
31765;DHT22;18338;53.240;8.798;2023-05-10T10:25:31;16.10;99.90
31765;DHT22;18338;53.240;8.798;2023-05-10T10:28:26;15.70;99.90
31765;DHT22;18338;53.240;8.798;2023-05-10T10:31:01;15.40;99.90
31765;DHT22;18338;53.240;8.798;2023-05-10T10:33:55;15.20;99.90
31765;DHT22;18338;53.240;8.798;2023-05-10T10:36:24;15.40;99.90
31765;DHT22;18338;53.240;8.798;2023-05-10T10:38:54;15.60;99.90
31765;DHT22;18338;53.240;8.798;2023-05-10T10:41:33;16.10;99.90
31765;DHT22;18338;53.240;8.798;2023-05-10T10:47:02;17.20;99.90
31765;DHT22;18338;53.240;8.798;2023-05-10T10:49:33;17.80;99.90
31765;DHT22;18338;53.240;8.798;2023-05-10T10:52:23;18.80;99.90
31765;DHT22;18338;53.240;8.798;2023-05-10T10:54:51;19.60;99.90
31765;DHT22;18338;53.240;8.798;2023-05-10T10:57:19;21.90;99.90
31765;DHT22;18338;53.240;8.798;2023-05-10T10:59:48;22.10;99.90
31765;DHT22;18338;53.240;8.798;2023-05-10T11:02:34;21.70;99.90
31765;DHT22;18338;53.240;8.798;2023-05-10T11:05:25;20.10;99.90
31765;DHT22;18338;53.240;8.798;2023-05-10T11:07:58;19.30;99.90
31765;DHT22;18338;53.240;8.798;2023-05-10T11:10:26;19.00;99.90
31765;DHT22;18338;53.240;8.798;2023-05-10T11:13:03;19.80;99.90
31765;DHT22;18338;53.240;8.798;2023-05-10T11:15:31;21.60;99.90
31765;DHT22;18338;53.240;8.798;2023-05-10T11:17:59;22.60;99.90
31765;DHT22;18338;53.240;8.798;2023-05-10T11:20:29;22.90;99.90
31765;DHT22;18338;53.240;8.798;2023-05-10T11:23:13;23.10;99.90
31765;DHT22;18338;53.240;8.798;2023-05-10T11:25:42;22.50;99.90
31765;DHT22;18338;53.240;8.798;2023-05-10T11:28:14;21.30;99.90
31765;DHT22;18338;53.240;8.798;2023-05-10T11:30:43;19.60;99.90
31765;DHT22;18338;53.240;8.798;2023-05-10T11:33:16;18.90;99.90
31765;DHT22;18338;53.240;8.798;2023-05-10T11:35:43;18.40;99.90
31765;DHT22;18338;53.240;8.798;2023-05-10T11:38:11;18.10;99.90
31765;DHT22;18338;53.240;8.798;2023-05-10T11:40:40;17.50;99.90
31765;DHT22;18338;53.240;8.798;2023-05-10T11:43:08;17.40;99.90
31765;DHT22;18338;53.240;8.798;2023-05-10T11:45:37;17.10;99.90
31765;DHT22;18338;53.240;8.798;2023-05-10T11:48:03;16.90;99.90
31765;DHT22;18338;53.240;8.798;2023-05-10T11:50:30;16.70;99.90
31765;DHT22;18338;53.240;8.798;2023-05-10T11:52:57;17.10;99.90
31765;DHT22;18338;53.240;8.798;2023-05-10T11:55:25;18.90;99.90
31765;DHT22;18338;53.240;8.798;2023-05-10T11:57:52;19.70;99.90
31765;DHT22;18338;53.240;8.798;2023-05-10T12:00:20;20.50;99.90
31765;DHT22;18338;53.240;8.798;2023-05-10T12:02:47;21.40;99.90
31765;DHT22;18338;53.240;8.798;2023-05-10T12:05:15;21.80;99.90
31765;DHT22;18338;53.240;8.798;2023-05-10T12:07:41;24.40;99.90
31765;DHT22;18338;53.240;8.798;2023-05-10T12:10:10;26.10;99.90
31765;DHT22;18338;53.240;8.798;2023-05-10T12:12:43;24.60;99.90
31765;DHT22;18338;53.240;8.798;2023-05-10T12:15:30;25.10;99.90
31765;DHT22;18338;53.240;8.798;2023-05-10T12:17:58;23.10;99.90
31765;DHT22;18338;53.240;8.798;2023-05-10T12:20:27;21.30;99.90
31765;DHT22;18338;53.240;8.798;2023-05-10T12:22:56;20.40;99.90
31765;DHT22;18338;53.240;8.798;2023-05-10T12:25:30;19.90;99.90
31765;DHT22;18338;53.240;8.798;2023-05-10T12:27:58;18.90;99.90
31765;DHT22;18338;53.240;8.798;2023-05-10T12:30:29;17.80;99.90
31765;DHT22;18338;53.240;8.798;2023-05-10T12:33:09;16.90;99.90
31765;DHT22;18338;53.240;8.798;2023-05-10T12:35:47;16.50;99.90
31765;DHT22;18338;53.240;8.798;2023-05-10T12:38:44;16.10;99.90
31765;DHT22;18338;53.240;8.798;2023-05-10T12:41:18;16.00;99.90
31765;DHT22;18338;53.240;8.798;2023-05-10T12:43:45;15.80;99.90
31765;DHT22;18338;53.240;8.798;2023-05-10T12:46:14;15.90;99.90
31765;DHT22;18338;53.240;8.798;2023-05-10T12:48:42;16.10;99.90
31765;DHT22;18338;53.240;8.798;2023-05-10T12:51:09;16.40;99.90
31765;DHT22;18338;53.240;8.798;2023-05-10T12:53:38;16.70;99.90
31765;DHT22;18338;53.240;8.798;2023-05-10T12:56:09;16.70;99.90
31765;DHT22;18338;53.240;8.798;2023-05-10T12:58:36;17.00;99.90
31765;DHT22;18338;53.240;8.798;2023-05-10T13:01:04;17.80;99.90
31765;DHT22;18338;53.240;8.798;2023-05-10T13:03:31;17.80;99.90
31765;DHT22;18338;53.240;8.798;2023-05-10T13:05:58;17.70;99.90
31765;DHT22;18338;53.240;8.798;2023-05-10T13:08:25;17.80;99.90
31765;DHT22;18338;53.240;8.798;2023-05-10T13:10:51;18.10;99.90
31765;DHT22;18338;53.240;8.798;2023-05-10T13:13:18;18.20;99.90
31765;DHT22;18338;53.240;8.798;2023-05-10T13:15:45;18.30;99.90
31765;DHT22;18338;53.240;8.798;2023-05-10T13:18:11;18.50;99.90
31765;DHT22;18338;53.240;8.798;2023-05-10T13:20:38;18.70;99.90
31765;DHT22;18338;53.240;8.798;2023-05-10T13:23:05;19.60;99.90
31765;DHT22;18338;53.240;8.798;2023-05-10T13:25:31;19.20;99.90
31765;DHT22;18338;53.240;8.798;2023-05-10T13:27:58;19.00;99.90
31765;DHT22;18338;53.240;8.798;2023-05-10T13:30:25;18.80;99.90
31765;DHT22;18338;53.240;8.798;2023-05-10T13:32:52;18.30;99.90
31765;DHT22;18338;53.240;8.798;2023-05-10T13:35:18;18.10;99.90
31765;DHT22;18338;53.240;8.798;2023-05-10T13:37:45;17.80;99.90
31765;DHT22;18338;53.240;8.798;2023-05-10T13:40:12;17.60;99.90
31765;DHT22;18338;53.240;8.798;2023-05-10T13:42:39;17.70;99.90
31765;DHT22;18338;53.240;8.798;2023-05-10T13:45:06;17.40;99.90
31765;DHT22;18338;53.240;8.798;2023-05-10T13:47:33;17.10;99.90
31765;DHT22;18338;53.240;8.798;2023-05-10T13:49:59;17.60;99.90
31765;DHT22;18338;53.240;8.798;2023-05-10T13:52:27;18.20;99.90
31765;DHT22;18338;53.240;8.798;2023-05-10T13:54:54;18.40;99.90
31765;DHT22;18338;53.240;8.798;2023-05-10T13:57:22;18.50;99.90
31765;DHT22;18338;53.240;8.798;2023-05-10T13:59:49;17.60;99.90
31765;DHT22;18338;53.240;8.798;2023-05-10T14:02:16;17.10;99.90
31765;DHT22;18338;53.240;8.798;2023-05-10T14:04:43;17.00;99.90
31765;DHT22;18338;53.240;8.798;2023-05-10T14:07:09;17.10;99.90
31765;DHT22;18338;53.240;8.798;2023-05-10T14:09:36;16.70;99.90
31765;DHT22;18338;53.240;8.798;2023-05-10T14:12:03;16.40;99.90
31765;DHT22;18338;53.240;8.798;2023-05-10T14:14:30;16.60;99.90
31765;DHT22;18338;53.240;8.798;2023-05-10T14:16:56;16.80;99.90
31765;DHT22;18338;53.240;8.798;2023-05-10T14:19:23;17.00;99.90
31765;DHT22;18338;53.240;8.798;2023-05-10T14:21:49;17.30;99.90
31765;DHT22;18338;53.240;8.798;2023-05-10T14:24:18;17.30;99.90
31765;DHT22;18338;53.240;8.798;2023-05-10T14:26:44;17.10;99.90
31765;DHT22;18338;53.240;8.798;2023-05-10T14:29:11;17.10;99.90
31765;DHT22;18338;53.240;8.798;2023-05-10T14:31:38;17.10;99.90
31765;DHT22;18338;53.240;8.798;2023-05-10T14:34:05;16.80;99.90
31765;DHT22;18338;53.240;8.798;2023-05-10T14:36:32;17.00;99.90
31765;DHT22;18338;53.240;8.798;2023-05-10T14:38:58;17.40;99.90
31765;DHT22;18338;53.240;8.798;2023-05-10T14:41:25;17.40;99.90
31765;DHT22;18338;53.240;8.798;2023-05-10T14:43:52;17.70;99.90
31765;DHT22;18338;53.240;8.798;2023-05-10T14:46:19;18.20;99.90
31765;DHT22;18338;53.240;8.798;2023-05-10T14:48:46;18.90;99.90
31765;DHT22;18338;53.240;8.798;2023-05-10T14:51:13;19.10;99.90
31765;DHT22;18338;53.240;8.798;2023-05-10T14:53:39;19.60;99.90
31765;DHT22;18338;53.240;8.798;2023-05-10T14:56:06;20.20;99.90
31765;DHT22;18338;53.240;8.798;2023-05-10T14:58:33;21.10;99.90
31765;DHT22;18338;53.240;8.798;2023-05-10T15:01:00;21.00;99.90
31765;DHT22;18338;53.240;8.798;2023-05-10T15:03:27;20.80;99.90
31765;DHT22;18338;53.240;8.798;2023-05-10T15:05:55;20.30;99.90
31765;DHT22;18338;53.240;8.798;2023-05-10T15:08:24;20.80;99.90
31765;DHT22;18338;53.240;8.798;2023-05-10T15:10:53;20.80;99.90
31765;DHT22;18338;53.240;8.798;2023-05-10T15:13:21;21.40;99.90
31765;DHT22;18338;53.240;8.798;2023-05-10T15:15:48;22.10;99.90
31765;DHT22;18338;53.240;8.798;2023-05-10T15:18:15;22.40;99.90
31765;DHT22;18338;53.240;8.798;2023-05-10T15:20:41;21.80;99.90
31765;DHT22;18338;53.240;8.798;2023-05-10T15:23:08;22.70;99.90
31765;DHT22;18338;53.240;8.798;2023-05-10T15:25:35;23.70;99.90
31765;DHT22;18338;53.240;8.798;2023-05-10T15:28:04;24.10;99.90
31765;DHT22;18338;53.240;8.798;2023-05-10T15:30:31;24.00;99.90
31765;DHT22;18338;53.240;8.798;2023-05-10T15:33:00;22.90;99.90
31765;DHT22;18338;53.240;8.798;2023-05-10T15:35:35;22.10;99.90
31765;DHT22;18338;53.240;8.798;2023-05-10T15:38:20;21.10;99.90
31765;DHT22;18338;53.240;8.798;2023-05-10T15:40:48;19.10;99.90
31765;DHT22;18338;53.240;8.798;2023-05-10T15:43:17;18.00;99.90
31765;DHT22;18338;53.240;8.798;2023-05-10T15:45:47;17.50;99.90
31765;DHT22;18338;53.240;8.798;2023-05-10T15:48:20;17.00;99.90
31765;DHT22;18338;53.240;8.798;2023-05-10T15:50:50;16.70;99.90
31765;DHT22;18338;53.240;8.798;2023-05-10T15:53:18;16.40;99.90
31765;DHT22;18338;53.240;8.798;2023-05-10T15:55:53;16.30;99.90
31765;DHT22;18338;53.240;8.798;2023-05-10T15:58:22;16.10;99.90
31765;DHT22;18338;53.240;8.798;2023-05-10T16:00:49;15.90;99.90